Time,TemperatureF,DewpointF,PressureIn,WindDirection,WindDirectionDegrees,WindSpeedMPH,WindSpeedGustMPH,Humidity,HourlyPrecipIn,Conditions,Clouds,dailyrainin,SolarRadiationWatts/m^2,SoftwareType,DateUTC
2013-05-14 00:01:00,40.0,34.0,-100.00,NW,325,8.0,13.0,78,0.00,,,0.07,0.000000,,2013-05-14 07:01:00,
2013-05-14 00:11:00,40.0,34.0,-100.00,NW,325,8.0,13.0,78,0.00,,,0.07,0.000000,,2013-05-14 07:11:00,
2013-05-14 00:21:00,40.0,34.0,-100.00,NW,325,8.0,13.0,78,0.00,,,0.07,0.000000,,2013-05-14 07:21:00,
2013-05-14 00:31:00,40.0,34.0,-100.00,NW,325,8.0,13.0,78,0.00,,,0.07,0.000000,,2013-05-14 07:31:00,
2013-05-14 00:52:00,40.0,34.0,-100.00,WNW,302,7.0,14.0,78,0.00,,,0.07,0.000000,,2013-05-14 07:52:00,
2013-05-14 01:02:00,40.0,34.0,-100.00,WNW,302,7.0,14.0,78,0.00,,,0.07,0.000000,,2013-05-14 08:02:00,
2013-05-14 01:11:00,40.0,34.0,-100.00,WNW,302,7.0,14.0,78,0.00,,,0.07,0.000000,,2013-05-14 08:11:00,
2013-05-14 01:21:00,40.0,34.0,-100.00,WNW,302,7.0,14.0,78,0.00,,,0.07,0.000000,,2013-05-14 08:21:00,
2013-05-14 01:31:00,40.0,34.0,-100.00,WNW,302,7.0,14.0,78,0.00,,,0.07,0.000000,,2013-05-14 08:31:00,
2013-05-14 01:52:00,40.0,33.0,-100.00,NNW,332,8.0,14.0,77,0.00,,,0.07,0.000000,,2013-05-14 08:52:00,
2013-05-14 02:01:00,40.0,33.0,-100.00,NNW,332,8.0,14.0,77,0.00,,,0.07,0.000000,,2013-05-14 09:01:00,
2013-05-14 02:11:00,40.0,33.0,-100.00,NNW,332,8.0,14.0,77,0.00,,,0.07,0.000000,,2013-05-14 09:11:00,
2013-05-14 02:21:00,40.0,33.0,-100.00,NNW,332,8.0,14.0,77,0.00,,,0.07,0.000000,,2013-05-14 09:21:00,
2013-05-14 02:32:00,40.0,33.0,-100.00,NNW,332,8.0,14.0,77,0.00,,,0.07,0.000000,,2013-05-14 09:32:00,
2013-05-14 02:54:00,40.0,33.0,-100.00,NW,325,8.0,13.0,77,0.00,,,0.07,0.000000,,2013-05-14 09:54:00,
2013-05-14 03:04:00,40.0,33.0,-100.00,NW,325,8.0,13.0,77,0.00,,,0.07,0.000000,,2013-05-14 10:04:00,
2013-05-14 03:14:00,40.0,33.0,-100.00,NW,325,8.0,13.0,77,0.00,,,0.07,0.000000,,2013-05-14 10:14:00,
2013-05-14 03:25:00,40.0,33.0,-100.00,NW,325,8.0,13.0,77,0.00,,,0.07,0.000000,,2013-05-14 10:25:00,
2013-05-14 03:32:00,40.0,33.0,-100.00,NW,325,8.0,13.0,77,0.00,,,0.07,0.000000,,2013-05-14 10:32:00,
2013-05-14 03:52:00,39.0,33.0,-100.00,NW,324,6.0,13.0,78,0.00,,,0.07,0.000000,,2013-05-14 10:52:00,
2013-05-14 04:02:00,39.0,33.0,-100.00,NW,324,6.0,13.0,78,0.00,,,0.07,0.000000,,2013-05-14 11:02:00,
2013-05-14 04:11:00,39.0,33.0,-100.00,NW,324,6.0,13.0,78,0.00,,,0.07,0.000000,,2013-05-14 11:11:00,
2013-05-14 04:21:00,39.0,33.0,-100.00,NW,324,6.0,13.0,78,0.00,,,0.07,0.000000,,2013-05-14 11:21:00,
2013-05-14 04:32:00,39.0,33.0,-100.00,NW,324,6.0,13.0,78,0.00,,,0.07,0.000000,,2013-05-14 11:32:00,
2013-05-14 04:53:00,39.0,32.0,-100.00,NW,323,5.0,9.0,76,0.00,,,0.07,0.000000,,2013-05-14 11:53:00,
2013-05-14 05:02:00,39.0,32.0,-100.00,NW,323,5.0,9.0,76,0.00,,,0.07,0.000000,,2013-05-14 12:02:00,
2013-05-14 05:12:00,39.0,32.0,-100.00,NW,323,5.0,9.0,76,0.00,,,0.07,0.000000,,2013-05-14 12:12:00,
2013-05-14 05:21:00,39.0,32.0,-100.00,NW,323,5.0,9.0,76,0.00,,,0.07,0.000000,,2013-05-14 12:21:00,
2013-05-14 05:31:00,39.0,32.0,-100.00,NW,323,5.0,9.0,76,0.00,,,0.07,0.000000,,2013-05-14 12:31:00,
2013-05-14 05:52:00,38.0,32.0,-100.00,NNW,334,5.0,10.0,79,0.00,,,0.07,0.000000,,2013-05-14 12:52:00,
2013-05-14 06:01:00,38.0,32.0,-100.00,NNW,334,5.0,10.0,79,0.00,,,0.07,0.000000,,2013-05-14 13:01:00,
2013-05-14 06:11:00,38.0,32.0,-100.00,NNW,334,5.0,10.0,79,0.00,,,0.07,0.000000,,2013-05-14 13:11:00,
2013-05-14 06:22:00,38.0,32.0,-100.00,NNW,334,5.0,10.0,79,0.00,,,0.07,0.000000,,2013-05-14 13:22:00,
2013-05-14 06:32:00,38.0,32.0,-100.00,NNW,334,5.0,10.0,79,0.00,,,0.07,0.000000,,2013-05-14 13:32:00,
2013-05-14 06:52:00,39.0,33.0,-100.00,NW,304,4.0,8.0,78,0.00,,,0.07,35.000000,,2013-05-14 13:52:00,
2013-05-14 07:01:00,39.0,33.0,-100.00,NW,304,4.0,8.0,78,0.00,,,0.07,35.000000,,2013-05-14 14:01:00,
2013-05-14 07:11:00,39.0,33.0,-100.00,NW,304,4.0,8.0,78,0.00,,,0.07,35.000000,,2013-05-14 14:11:00,
2013-05-14 07:22:00,39.0,33.0,-100.00,NW,304,4.0,8.0,78,0.00,,,0.07,35.000000,,2013-05-14 14:22:00,
2013-05-14 07:31:00,39.0,33.0,-100.00,NW,304,4.0,8.0,78,0.00,,,0.07,35.000000,,2013-05-14 14:31:00,
2013-05-14 07:52:00,43.0,34.0,-100.00,WNW,300,3.0,7.0,71,0.00,,,0.07,168.000000,,2013-05-14 14:52:00,
2013-05-14 08:01:00,43.0,34.0,-100.00,WNW,300,3.0,7.0,71,0.00,,,0.07,168.000000,,2013-05-14 15:01:00,
2013-05-14 08:12:00,43.0,34.0,-100.00,WNW,300,3.0,7.0,71,0.00,,,0.07,168.000000,,2013-05-14 15:12:00,
2013-05-14 08:21:00,43.0,34.0,-100.00,WNW,300,3.0,7.0,71,0.00,,,0.07,168.000000,,2013-05-14 15:21:00,
2013-05-14 08:32:00,43.0,34.0,-100.00,WNW,300,3.0,7.0,71,0.00,,,0.07,168.000000,,2013-05-14 15:32:00,
2013-05-14 08:53:00,47.0,37.0,-100.00,SSE,159,4.0,6.0,67,0.00,,,0.07,391.000000,,2013-05-14 15:53:00,
2013-05-14 09:02:00,47.0,37.0,-100.00,SSE,159,4.0,6.0,67,0.00,,,0.07,391.000000,,2013-05-14 16:02:00,
2013-05-14 09:12:00,47.0,37.0,-100.00,SSE,159,4.0,6.0,67,0.00,,,0.07,391.000000,,2013-05-14 16:12:00,
2013-05-14 09:23:00,47.0,37.0,-100.00,SSE,159,4.0,6.0,67,0.00,,,0.07,391.000000,,2013-05-14 16:23:00,
2013-05-14 09:33:00,47.0,37.0,-100.00,SSE,159,4.0,6.0,67,0.00,,,0.07,391.000000,,2013-05-14 16:33:00,
2013-05-14 09:54:00,49.0,37.0,-100.00,South,179,5.0,8.0,64,0.00,,,0.07,576.000000,,2013-05-14 16:54:00,
2013-05-14 10:03:00,49.0,37.0,-100.00,South,179,5.0,8.0,64,0.00,,,0.07,576.000000,,2013-05-14 17:03:00,
2013-05-14 10:13:00,49.0,37.0,-100.00,South,179,5.0,8.0,64,0.00,,,0.07,576.000000,,2013-05-14 17:13:00,
2013-05-14 10:24:00,49.0,37.0,-100.00,South,179,5.0,8.0,64,0.00,,,0.07,576.000000,,2013-05-14 17:24:00,
2013-05-14 10:32:00,49.0,37.0,-100.00,South,179,5.0,8.0,64,0.00,,,0.07,576.000000,,2013-05-14 17:32:00,
2013-05-14 10:52:00,50.0,34.0,-100.00,SW,228,3.0,9.0,54,0.00,,,0.07,656.000000,,2013-05-14 17:52:00,
2013-05-14 11:02:00,50.0,34.0,-100.00,SW,228,3.0,9.0,54,0.00,,,0.07,656.000000,,2013-05-14 18:02:00,
2013-05-14 11:12:00,50.0,34.0,-100.00,SW,228,3.0,9.0,54,0.00,,,0.07,656.000000,,2013-05-14 18:12:00,
2013-05-14 11:22:00,50.0,34.0,-100.00,SW,228,3.0,9.0,54,0.00,,,0.07,656.000000,,2013-05-14 18:22:00,
2013-05-14 11:31:00,50.0,34.0,-100.00,SW,228,3.0,9.0,54,0.00,,,0.07,656.000000,,2013-05-14 18:31:00,
2013-05-14 11:52:00,53.0,32.0,-100.00,SSW,198,5.0,11.0,45,0.00,,,0.07,820.000000,,2013-05-14 18:52:00,
2013-05-14 12:01:00,53.0,32.0,-100.00,SSW,198,5.0,11.0,45,0.00,,,0.07,820.000000,,2013-05-14 19:01:00,
2013-05-14 12:11:00,53.0,32.0,-100.00,SSW,198,5.0,11.0,45,0.00,,,0.07,820.000000,,2013-05-14 19:11:00,
2013-05-14 12:21:00,53.0,32.0,-100.00,SSW,198,5.0,11.0,45,0.00,,,0.07,820.000000,,2013-05-14 19:21:00,
2013-05-14 12:31:00,53.0,32.0,-100.00,SSW,198,5.0,11.0,45,0.00,,,0.07,820.000000,,2013-05-14 19:31:00,
2013-05-14 12:52:00,56.0,28.0,-100.00,West,278,5.0,12.0,34,0.00,,,0.01,892.000000,,2013-05-14 19:52:00,
2013-05-14 13:02:00,56.0,28.0,-100.00,West,278,5.0,12.0,34,0.00,,,0.01,892.000000,,2013-05-14 20:02:00,
2013-05-14 13:11:00,56.0,28.0,-100.00,West,278,5.0,12.0,34,0.00,,,0.01,892.000000,,2013-05-14 20:11:00,
2013-05-14 13:22:00,56.0,28.0,-100.00,West,278,5.0,12.0,34,0.00,,,0.01,892.000000,,2013-05-14 20:22:00,
2013-05-14 13:32:00,56.0,28.0,-100.00,West,278,5.0,12.0,34,0.00,,,0.01,892.000000,,2013-05-14 20:32:00,
2013-05-14 13:52:00,58.0,28.0,-100.00,NNW,327,5.0,11.0,32,0.00,,,0.00,937.000000,,2013-05-14 20:52:00,
2013-05-14 14:03:00,58.0,28.0,-100.00,NNW,327,5.0,11.0,32,0.00,,,0.00,937.000000,,2013-05-14 21:03:00,
2013-05-14 14:12:00,58.0,28.0,-100.00,NNW,327,5.0,11.0,32,0.00,,,0.00,937.000000,,2013-05-14 21:12:00,
2013-05-14 14:22:00,58.0,28.0,-100.00,NNW,327,5.0,11.0,32,0.00,,,0.00,937.000000,,2013-05-14 21:22:00,
2013-05-14 14:33:00,58.0,28.0,-100.00,NNW,327,5.0,11.0,32,0.00,,,0.00,937.000000,,2013-05-14 21:33:00,
2013-05-14 14:34:00,60.0,28.0,-100.00,West,272,5.0,14.0,29,0.00,,,0.00,893.000000,,2013-05-14 21:34:00,
2013-05-14 14:53:00,60.0,28.0,-100.00,West,272,5.0,14.0,29,0.00,,,0.00,893.000000,,2013-05-14 21:53:00,
2013-05-14 15:03:00,60.0,28.0,-100.00,West,272,5.0,14.0,29,0.00,,,0.00,893.000000,,2013-05-14 22:03:00,
2013-05-14 15:13:00,60.0,28.0,-100.00,West,272,5.0,14.0,29,0.00,,,0.00,893.000000,,2013-05-14 22:13:00,
2013-05-14 15:24:00,60.0,28.0,-100.00,West,272,5.0,14.0,29,0.00,,,0.00,893.000000,,2013-05-14 22:24:00,
2013-05-14 15:54:00,58.0,26.0,-100.00,WSW,241,5.0,13.0,29,0.00,,,0.00,636.000000,,2013-05-14 22:54:00,
2013-05-14 16:03:00,58.0,26.0,-100.00,WSW,241,5.0,13.0,29,0.00,,,0.00,636.000000,,2013-05-14 23:03:00,
2013-05-14 16:12:00,58.0,26.0,-100.00,WSW,241,5.0,13.0,29,0.00,,,0.00,636.000000,,2013-05-14 23:12:00,
2013-05-14 16:21:00,58.0,26.0,-100.00,WSW,241,5.0,13.0,29,0.00,,,0.00,636.000000,,2013-05-14 23:21:00,
2013-05-14 16:31:00,58.0,26.0,-100.00,WSW,241,5.0,13.0,29,0.00,,,0.00,636.000000,,2013-05-14 23:31:00,
2013-05-14 16:52:00,62.0,27.0,-100.00,North,354,5.0,13.0,26,0.00,,,0.00,477.000000,,2013-05-14 23:52:00,
2013-05-14 17:01:00,62.0,27.0,-100.00,North,354,5.0,13.0,26,0.00,,,0.00,477.000000,,2013-05-15 00:01:00,
2013-05-14 17:11:00,62.0,27.0,-100.00,North,354,5.0,13.0,26,0.00,,,0.00,477.000000,,2013-05-15 00:11:00,
2013-05-14 17:21:00,62.0,27.0,-100.00,North,354,5.0,13.0,26,0.00,,,0.00,477.000000,,2013-05-15 00:21:00,
2013-05-14 17:32:00,62.0,27.0,-100.00,North,354,5.0,13.0,26,0.00,,,0.00,477.000000,,2013-05-15 00:32:00,
2013-05-14 17:52:00,60.0,31.0,-100.00,North,355,6.0,13.0,33,0.00,,,0.00,516.000000,,2013-05-15 00:52:00,
2013-05-14 18:01:00,60.0,31.0,-100.00,North,355,6.0,13.0,33,0.00,,,0.00,516.000000,,2013-05-15 01:01:00,
2013-05-14 18:11:00,60.0,31.0,-100.00,North,355,6.0,13.0,33,0.00,,,0.00,516.000000,,2013-05-15 01:11:00,
2013-05-14 18:21:00,60.0,31.0,-100.00,North,355,6.0,13.0,33,0.00,,,0.00,516.000000,,2013-05-15 01:21:00,
2013-05-14 18:31:00,60.0,31.0,-100.00,North,355,6.0,13.0,33,0.00,,,0.00,516.000000,,2013-05-15 01:31:00,
2013-05-14 18:52:00,56.0,31.0,-100.00,North,11,7.0,14.0,39,0.00,,,-99.99,325.000000,,2013-05-15 01:52:00,
2013-05-14 19:01:00,56.0,31.0,-100.00,North,11,7.0,14.0,39,0.00,,,-99.99,325.000000,,2013-05-15 02:01:00,
2013-05-14 19:11:00,56.0,31.0,-100.00,North,11,7.0,14.0,39,0.00,,,-99.99,325.000000,,2013-05-15 02:11:00,
2013-05-14 19:21:00,56.0,31.0,-100.00,North,11,7.0,14.0,39,0.00,,,-99.99,325.000000,,2013-05-15 02:21:00,
2013-05-14 19:31:00,56.0,31.0,-100.00,North,11,7.0,14.0,39,0.00,,,-99.99,325.000000,,2013-05-15 02:31:00,
2013-05-14 19:52:00,53.0,31.0,-100.00,North,11,6.0,13.0,42,0.00,,,0.00,182.000000,,2013-05-15 02:52:00,
2013-05-14 20:01:00,53.0,31.0,-100.00,North,11,6.0,13.0,42,0.00,,,0.00,182.000000,,2013-05-15 03:01:00,
2013-05-14 20:12:00,53.0,31.0,-100.00,North,11,6.0,13.0,42,0.00,,,0.00,182.000000,,2013-05-15 03:12:00,
2013-05-14 20:21:00,53.0,31.0,-100.00,North,11,6.0,13.0,42,0.00,,,0.00,182.000000,,2013-05-15 03:21:00,
2013-05-14 20:33:00,53.0,31.0,-100.00,North,11,6.0,13.0,42,0.00,,,0.00,182.000000,,2013-05-15 03:33:00,
2013-05-14 20:54:00,49.0,27.0,-100.00,North,356,5.0,12.0,42,0.00,,,0.00,20.000000,,2013-05-15 03:54:00,
2013-05-14 21:03:00,49.0,27.0,-100.00,North,356,5.0,12.0,42,0.00,,,0.00,20.000000,,2013-05-15 04:03:00,
2013-05-14 21:12:00,49.0,27.0,-100.00,North,356,5.0,12.0,42,0.00,,,0.00,20.000000,,2013-05-15 04:12:00,
2013-05-14 21:23:00,49.0,27.0,-100.00,North,356,5.0,12.0,42,0.00,,,0.00,20.000000,,2013-05-15 04:23:00,
2013-05-14 21:32:00,49.0,27.0,-100.00,North,356,5.0,12.0,42,0.00,,,0.00,20.000000,,2013-05-15 04:32:00,
2013-05-14 21:52:00,47.0,25.0,-100.00,NNW,347,7.0,17.0,41,0.00,,,0.00,0.000000,,2013-05-15 04:52:00,
2013-05-14 22:02:00,47.0,25.0,-100.00,NNW,347,7.0,17.0,41,0.00,,,0.00,0.000000,,2013-05-15 05:02:00,
2013-05-14 22:12:00,47.0,25.0,-100.00,NNW,347,7.0,17.0,41,0.00,,,0.00,0.000000,,2013-05-15 05:12:00,
2013-05-14 22:22:00,47.0,25.0,-100.00,NNW,347,7.0,17.0,41,0.00,,,0.00,0.000000,,2013-05-15 05:22:00,
2013-05-14 22:32:00,47.0,25.0,-100.00,NNW,347,7.0,17.0,41,0.00,,,0.00,0.000000,,2013-05-15 05:32:00,
2013-05-14 22:52:00,47.0,34.0,-100.00,NNW,330,6.0,14.0,61,0.00,,,0.00,0.000000,,2013-05-15 05:52:00,
2013-05-14 23:02:00,47.0,34.0,-100.00,NNW,330,6.0,14.0,61,0.00,,,0.00,0.000000,,2013-05-15 06:02:00,
2013-05-14 23:11:00,47.0,34.0,-100.00,NNW,330,6.0,14.0,61,0.00,,,0.00,0.000000,,2013-05-15 06:11:00,
2013-05-14 23:21:00,47.0,34.0,-100.00,NNW,330,6.0,14.0,61,0.00,,,0.00,0.000000,,2013-05-15 06:21:00,
2013-05-14 23:31:00,47.0,34.0,-100.00,NNW,330,6.0,14.0,61,0.00,,,0.00,0.000000,,2013-05-15 06:31:00,
2013-05-14 23:52:00,45.0,33.0,-100.00,NNW,330,6.0,13.0,63,0.00,,,0.00,0.000000,,2013-05-15 06:52:00,